Time;durP1;ratioP1;P1;durP2;ratioP2;P2;SDS_P1;SDS_P2;PMS_P1;PMS_P2;Temp;Humidity;BMP_temperature;BMP_pressure;BME280_temperature;BME280_humidity;BME280_pressure;Samples;Min_cycle;Max_cycle;Signal;HPM_P1;HPM_P2
2022/12/17 13:06:44;;;;;;;;;43.00;38.75;;;;;2.96;62.33;102042.69;4999090;28;45377;-67
2022/12/17 13:09:22;;;;;;;;;39.75;35.25;;;;;3.01;62.17;102053.31;5008243;28;45357;-68
2022/12/17 13:12:07;;;;;;;;;44.25;39.50;;;;;3.05;62.30;102040.22;5018646;28;45399;-67
2022/12/17 13:14:58;;;;;;;;;37.50;27.00;;;;;3.08;62.38;102055.22;5010757;28;46686;-67
2022/12/17 13:17:35;;;;;;;;;42.25;38.75;;;;;3.07;62.21;102046.41;5001606;28;45392;-68
2022/12/17 13:20:00;;;;;;;;;33.00;29.75;;;;;3.11;62.19;102037.72;5018787;28;45532;-68
2022/12/17 13:22:27;;;;;;;;;27.33;16.33;;;;;3.18;61.99;102044.00;5018505;28;45563;-68
2022/12/17 13:25:17;;;;;;;;;50.25;38.50;;;;;3.19;62.13;102048.41;5018261;28;46002;-68
2022/12/17 13:27:44;;;;;;;;;55.50;42.00;;;;;3.22;62.57;102045.81;5003362;28;45336;-67
2022/12/17 13:30:37;;;;;;;;;49.25;39.25;;;;;3.21;61.69;102038.78;4999026;28;45396;-68
2022/12/17 13:33:36;;;;;;;;;44.75;38.25;;;;;3.21;61.72;102044.06;4998724;28;45647;-68
2022/12/17 13:36:15;;;;;;;;;54.25;41.75;;;;;3.23;62.01;102042.31;4999622;28;45401;-68
2022/12/17 13:38:53;;;;;;;;;47.75;39.75;;;;;3.26;61.79;102037.09;5002408;28;45267;-68
2022/12/17 13:41:21;;;;;;;;;49.50;40.25;;;;;3.29;62.40;102033.63;5009445;28;45485;-68
2022/12/17 13:43:56;;;;;;;;;43.25;35.50;;;;;3.32;61.67;102037.22;5007608;28;45574;-67
2022/12/17 13:46:24;;;;;;;;;56.50;43.25;;;;;3.37;61.58;102036.41;5005715;28;46007;-68
2022/12/17 13:48:55;;;;;;;;;49.75;36.50;;;;;3.40;61.43;102039.09;5001612;28;45322;-68
2022/12/17 13:51:21;;;;;;;;;48.25;40.25;;;;;3.43;62.09;102044.44;5002221;28;45562;-68
2022/12/17 13:53:55;;;;;;;;;52.25;42.50;;;;;3.47;61.54;102043.63;5002156;28;45369;-67
2022/12/17 13:56:26;;;;;;;;;45.25;37.75;;;;;3.51;61.27;102034.91;5014715;28;46215;-67
2022/12/17 13:58:53;;;;;;;;;42.25;36.25;;;;;3.54;61.44;102027.03;5020820;28;46044;-67
2022/12/17 14:01:19;;;;;;;;;47.25;37.75;;;;;3.51;61.08;102021.72;5021131;28;45603;-67
2022/12/17 14:04:18;;;;;;;;;50.25;42.75;;;;;3.55;61.47;102034.09;5020879;28;45766;-67
2022/12/17 14:06:44;;;;;;;;;39.25;33.25;;;;;3.57;60.86;102032.38;5020712;28;45543;-67
2022/12/17 14:09:16;;;;;;;;;44.00;37.25;;;;;3.56;60.64;102038.53;5021038;28;45828;-68
2022/12/17 14:14:41;;;;;;;;;44.00;38.00;;;;;3.64;61.02;102036.00;5018739;28;45562;-67
2022/12/17 14:17:17;;;;;;;;;47.50;40.75;;;;;3.62;60.80;102035.09;5008906;28;45460;-68
2022/12/17 14:19:43;;;;;;;;;40.75;31.75;;;;;3.60;60.81;102032.41;5020667;28;45273;-68
2022/12/17 14:22:19;;;;;;;;;43.75;35.00;;;;;3.64;60.78;102041.28;5020817;28;45377;-67
2022/12/17 14:24:45;;;;;;;;;41.00;30.75;;;;;3.62;60.75;102035.09;5018164;28;45426;-67
2022/12/17 14:27:22;;;;;;;;;43.25;36.00;;;;;3.70;60.60;102044.03;5020599;28;46071;-68
2022/12/17 14:29:47;;;;;;;;;44.50;35.25;;;;;3.70;60.17;102046.66;5021199;28;45878;-67
2022/12/17 14:32:31;;;;;;;;;42.00;37.50;;;;;3.68;60.36;102054.56;5021531;28;45603;-67
2022/12/17 14:34:57;;;;;;;;;42.50;37.00;;;;;3.70;60.39;102058.13;5021486;28;45612;-67
2022/12/17 14:37:25;;;;;;;;;43.25;37.50;;;;;3.74;61.04;102051.13;5020928;28;46251;-67
2022/12/17 14:40:03;;;;;;;;;38.25;33.75;;;;;3.75;59.86;102049.41;5021456;28;45313;-67
2022/12/17 14:42:28;;;;;;;;;38.00;31.25;;;;;3.78;59.63;102045.06;5017469;28;45501;-67
2022/12/17 14:45:00;;;;;;;;;34.50;30.75;;;;;3.78;59.77;102047.69;5002363;28;45420;-67
2022/12/17 14:47:27;;;;;;;;;39.75;31.75;;;;;3.80;59.67;102055.66;4999756;28;46540;-67
2022/12/17 14:49:55;;;;;;;;;36.75;31.50;;;;;3.79;59.06;102059.13;5001141;28;45270;-67
2022/12/17 14:52:35;;;;;;;;;32.75;26.75;;;;;3.78;59.25;102058.25;5001130;28;45488;-68
2022/12/17 14:55:27;;;;;;;;;34.25;30.00;;;;;3.75;58.75;102047.63;5001196;28;45527;-67
2022/12/17 14:58:11;;;;;;;;;36.75;30.25;;;;;3.74;59.02;102040.56;5001033;28;46199;-67
2022/12/17 15:00:41;;;;;;;;;41.25;31.75;;;;;3.76;59.75;102035.31;5001004;28;45429;-67
2022/12/17 15:03:10;;;;;;;;;40.50;30.00;;;;;3.78;59.04;102030.97;5001304;28;45353;-67
2022/12/17 15:05:36;;;;;;;;;28.75;27.00;;;;;3.80;59.65;102031.88;5008078;28;45479;-67
2022/12/17 15:08:03;;;;;;;;;43.50;36.00;;;;;3.74;58.98;102032.63;5020508;28;46083;-67
2022/12/17 15:10:29;;;;;;;;;37.50;32.75;;;;;3.76;59.32;102036.22;5020934;28;45437;-68
2022/12/17 15:12:54;;;;;;;;;47.75;37.00;;;;;3.74;59.55;102043.19;5019683;28;45545;-67
2022/12/17 15:15:20;;;;;;;;;33.25;30.75;;;;;3.71;58.95;102040.53;4999304;28;45505;-68
2022/12/17 15:17:46;;;;;;;;;41.25;33.25;;;;;3.77;59.47;102045.91;5000501;28;47082;-67
2022/12/17 15:20:17;;;;;;;;;33.00;29.00;;;;;3.76;59.24;102044.16;5007623;28;45290;-67
2022/12/17 15:22:42;;;;;;;;;27.00;25.50;;;;;3.71;58.45;102032.63;5016868;28;45400;-68
2022/12/17 15:25:16;;;;;;;;;40.25;29.00;;;;;3.77;58.43;102042.38;5000181;28;45668;-67
2022/12/17 15:27:42;;;;;;;;;26.25;25.25;;;;;3.76;59.12;102037.94;4999393;28;45474;-68
2022/12/17 15:30:12;;;;;;;;;29.75;25.50;;;;;3.71;58.77;102025.56;5000584;28;45413;-67
2022/12/17 15:32:38;;;;;;;;;37.25;34.25;;;;;3.76;58.19;102033.56;5000763;28;45449;-68
2022/12/17 15:35:03;;;;;;;;;35.75;29.75;;;;;3.73;58.01;102028.25;5000675;28;45435;-68
2022/12/17 15:37:29;;;;;;;;;35.00;27.75;;;;;3.76;58.52;102046.78;5000179;28;45364;-67
2022/12/17 15:39:57;;;;;;;;;39.00;33.25;;;;;3.75;58.20;102049.41;5000564;28;45351;-67
2022/12/17 15:45:07;;;;;;;;;33.50;30.00;;;;;3.70;58.25;102044.91;5006552;28;45380;-68
2022/12/17 15:47:32;;;;;;;;;33.75;28.25;;;;;3.73;58.64;102054.66;5001881;28;45481;-67
2022/12/17 15:49:57;;;;;;;;;32.25;26.00;;;;;3.67;58.33;102047.50;5000463;28;45511;-68
2022/12/17 15:52:23;;;;;;;;;41.50;31.50;;;;;3.68;58.35;102058.97;5000295;28;45389;-67
2022/12/17 15:54:48;;;;;;;;;45.00;35.25;;;;;3.64;58.20;102054.47;5000388;28;45418;-67
2022/12/17 15:57:13;;;;;;;;;36.25;33.75;;;;;3.60;57.85;102050.91;4999778;28;45393;-67
2022/12/17 15:59:39;;;;;;;;;35.00;31.50;;;;;3.69;58.47;102072.19;4999786;28;45271;-67
2022/12/17 16:02:04;;;;;;;;;42.50;37.00;;;;;3.65;57.90;102072.13;5000190;28;45383;-68
2022/12/17 16:04:29;;;;;;;;;42.75;38.75;;;;;3.64;57.89;102071.25;5000281;28;45464;-67
2022/12/17 16:06:55;;;;;;;;;30.75;27.75;;;;;3.62;58.06;102075.56;4999758;28;46143;-68
2022/12/17 16:09:23;;;;;;;;;50.00;37.00;;;;;3.60;58.60;102079.94;5000173;28;45306;-67
2022/12/17 16:11:52;;;;;;;;;27.75;23.25;;;;;3.56;58.24;102088.69;5003264;28;45400;-68
2022/12/17 16:14:18;;;;;;;;;27.75;26.25;;;;;3.47;58.15;102080.59;5017938;28;45388;-67
2022/12/17 16:16:43;;;;;;;;;34.50;28.25;;;;;3.45;58.18;102082.31;5001354;28;45307;-68
2022/12/17 16:19:09;;;;;;;;;33.25;29.25;;;;;3.40;57.15;102071.66;4999905;28;45247;-68
2022/12/17 16:21:34;;;;;;;;;38.25;31.75;;;;;3.44;57.78;102083.16;5017782;28;45482;-67
2022/12/17 16:24:00;;;;;;;;;33.00;28.50;;;;;3.41;57.20;102083.09;5005327;28;45441;-67
2022/12/17 16:26:25;;;;;;;;;32.50;26.25;;;;;3.43;58.17;102073.50;4999167;28;46318;-67
2022/12/17 16:28:50;;;;;;;;;38.75;29.75;;;;;3.41;57.85;102067.25;4999734;28;45306;-67
2022/12/17 16:31:16;;;;;;;;;35.75;28.00;;;;;3.36;58.29;102069.84;4999828;28;45746;-67
2022/12/17 16:33:42;;;;;;;;;37.25;29.50;;;;;3.30;57.83;102073.25;4999683;28;45612;-68
2022/12/17 16:36:11;;;;;;;;;36.00;30.00;;;;;3.31;57.46;102067.13;4999402;28;45423;-67
2022/12/17 16:38:45;;;;;;;;;33.00;26.25;;;;;3.32;58.55;102074.19;4999532;28;45402;-68
2022/12/17 16:41:11;;;;;;;;;39.00;29.50;;;;;3.33;57.83;102069.78;4999401;28;45562;-67
2022/12/17 16:43:37;;;;;;;;;32.25;26.50;;;;;3.34;57.85;102071.53;5004992;28;45543;-67
2022/12/17 16:46:03;;;;;;;;;40.00;32.50;;;;;3.33;58.25;102078.59;4999097;28;45504;-67
2022/12/17 16:48:35;;;;;;;;;46.75;34.25;;;;;3.32;57.59;102083.81;4999235;28;45408;-68
2022/12/17 16:51:15;;;;;;;;;34.50;32.75;;;;;3.28;57.57;102076.72;4999548;28;45341;-67
2022/12/17 16:53:41;;;;;;;;;35.50;29.50;;;;;3.23;58.09;102073.13;4999311;28;45266;-67
2022/12/17 16:56:06;;;;;;;;;33.50;29.50;;;;;3.19;58.20;102060.69;4998979;28;45353;-67
2022/12/17 16:58:32;;;;;;;;;33.50;29.25;;;;;3.18;57.66;102058.94;4999178;28;45262;-68
2022/12/17 17:00:57;;;;;;;;;29.75;27.25;;;;;3.03;58.16;102041.94;4999555;28;45378;-67
2022/12/17 17:03:22;;;;;;;;;28.75;24.25;;;;;3.11;57.95;102068.50;4999162;28;45352;-67
2022/12/17 17:05:48;;;;;;;;;23.00;17.75;;;;;3.12;57.24;102062.34;4999215;28;46284;-67
2022/12/17 17:08:13;;;;;;;;;25.50;24.50;;;;;3.08;57.98;102055.22;4999077;28;45778;-67
2022/12/17 17:10:38;;;;;;;;;35.25;30.25;;;;;3.13;58.26;102070.28;4998629;28;45696;-67
2022/12/17 17:13:03;;;;;;;;;33.50;29.25;;;;;3.15;57.71;102078.22;5006212;28;45471;-67
2022/12/17 17:15:29;;;;;;;;;34.25;28.25;;;;;3.16;57.50;102080.03;5010527;28;45998;-67
2022/12/17 17:17:54;;;;;;;;;34.25;33.00;;;;;3.11;58.00;102064.09;4999029;28;45367;-67
2022/12/17 17:20:19;;;;;;;;;41.75;37.25;;;;;3.15;57.88;102067.66;4999161;28;45444;-67
2022/12/17 17:22:45;;;;;;;;;29.75;27.00;;;;;3.11;58.18;102069.38;4998729;28;45445;-67
2022/12/17 17:25:10;;;;;;;;;44.25;36.50;;;;;3.11;57.90;102074.66;4998877;28;46167;-68
2022/12/17 17:27:36;;;;;;;;;66.00;49.25;;;;;3.11;58.54;102076.41;5006294;28;45472;-67
2022/12/17 17:30:01;;;;;;;;;47.00;39.75;;;;;3.13;57.80;102072.91;5017991;28;45381;-67
2022/12/17 17:32:27;;;;;;;;;38.00;30.25;;;;;3.11;58.26;102066.72;5017733;28;45467;-67
2022/12/17 17:34:52;;;;;;;;;40.50;34.25;;;;;3.13;58.16;102067.63;5017790;28;45393;-67
2022/12/17 17:37:17;;;;;;;;;37.75;37.50;;;;;3.13;57.91;102086.13;5017606;28;45577;-67
2022/12/17 17:39:43;;;;;;;;;53.75;42.75;;;;;3.15;58.13;102091.41;5017904;28;45660;-68
2022/12/17 17:42:08;;;;;;;;;38.00;34.00;;;;;3.12;58.18;102079.06;5016367;28;45423;-67
2022/12/17 17:44:34;;;;;;;;;52.25;43.00;;;;;3.11;58.28;102087.84;5009076;28;45460;-67
2022/12/17 17:47:00;;;;;;;;;47.00;40.50;;;;;3.11;58.03;102100.16;5009782;28;45407;-67
2022/12/17 17:49:25;;;;;;;;;40.75;38.50;;;;;3.11;57.93;102095.75;4998027;28;46068;-67
2022/12/17 17:51:50;;;;;;;;;44.50;34.00;;;;;3.08;57.98;102097.44;4997789;28;45720;-67
2022/12/17 17:54:16;;;;;;;;;49.25;42.00;;;;;3.04;58.54;102085.03;4997799;28;46583;-67
2022/12/17 17:56:42;;;;;;;;;55.00;42.75;;;;;3.06;58.28;102080.69;4997552;28;45353;-67
2022/12/17 17:59:13;;;;;;;;;46.75;37.50;;;;;3.04;58.62;102078.03;4998513;28;45334;-68
2022/12/17 18:01:43;;;;;;;;;53.75;44.00;;;;;3.07;58.42;102091.25;4997155;28;45294;-67
2022/12/17 18:04:11;;;;;;;;;47.75;35.50;;;;;2.99;58.00;102069.13;4998567;28;45633;-67
2022/12/17 18:06:39;;;;;;;;;47.50;39.50;;;;;3.09;58.19;102076.38;4998172;28;45374;-68
2022/12/17 18:09:05;;;;;;;;;42.50;38.50;;;;;3.07;58.14;102071.91;4998696;28;45439;-67
2022/12/17 18:11:32;;;;;;;;;43.25;33.75;;;;;3.08;58.09;102079.84;5001713;28;45553;-67
2022/12/17 18:14:02;;;;;;;;;37.75;35.75;;;;;3.07;58.56;102064.88;5011475;28;45468;-67
2022/12/17 18:16:34;;;;;;;;;36.75;35.50;;;;;3.07;58.43;102061.34;5001872;28;45409;-68
2022/12/17 18:19:02;;;;;;;;;48.75;41.75;;;;;3.04;58.56;102059.56;4997180;28;45543;-68
2022/12/17 18:21:29;;;;;;;;;46.25;42.75;;;;;3.04;58.46;102061.28;5015347;28;45569;-67
2022/12/17 18:24:14;;;;;;;;;56.50;42.50;;;;;3.03;58.72;102062.16;5007784;28;46457;-67
2022/12/17 18:26:41;;;;;;;;;52.50;45.50;;;;;2.99;58.40;102073.50;5001342;28;45338;-67
2022/12/17 18:29:13;;;;;;;;;46.50;41.50;;;;;3.05;58.53;102078.91;5001629;28;45570;-67
2022/12/17 18:31:39;;;;;;;;;49.00;42.50;;;;;3.04;58.35;102077.13;5001680;28;45341;-67
2022/12/17 18:34:06;;;;;;;;;52.50;43.25;;;;;3.04;58.50;102077.13;5001384;28;46202;-67
2022/12/17 18:36:34;;;;;;;;;59.00;45.50;;;;;3.03;58.55;102067.44;5001353;28;45421;-67
2022/12/17 18:39:06;;;;;;;;;51.25;42.50;;;;;3.02;58.95;102069.16;5001471;28;45427;-67
2022/12/17 18:44:17;;;;;;;;;52.00;45.00;;;;;2.98;59.15;102083.19;5003241;28;45375;-67
2022/12/17 18:46:42;;;;;;;;;60.00;49.50;;;;;2.95;58.89;102083.09;5001049;28;45354;-67
2022/12/17 18:49:10;;;;;;;;;61.75;45.00;;;;;3.01;58.73;102090.25;5001441;28;45559;-68
2022/12/17 18:51:38;;;;;;;;;61.75;49.25;;;;;2.95;58.60;102101.56;5001254;28;45496;-68
2022/12/17 18:54:08;;;;;;;;;48.50;41.00;;;;;2.87;58.45;102098.75;5001166;28;45496;-67
2022/12/17 18:56:34;;;;;;;;;62.50;50.25;;;;;2.86;58.94;102106.66;4995258;28;46117;-68
2022/12/17 18:59:00;;;;;;;;;62.00;46.25;;;;;2.81;59.04;102108.28;5000643;28;45386;-67
2022/12/17 19:01:32;;;;;;;;;65.25;49.75;;;;;2.81;58.86;102105.66;5001138;28;45566;-67
2022/12/17 19:04:03;;;;;;;;;51.25;40.00;;;;;2.80;58.63;102106.53;5007957;28;45408;-67
2022/12/17 19:06:28;;;;;;;;;57.25;48.00;;;;;2.76;59.05;102101.19;5020719;28;45330;-67
2022/12/17 19:08:53;;;;;;;;;50.50;42.50;;;;;2.74;59.04;102107.25;5021037;28;45305;-67
2022/12/17 19:11:21;;;;;;;;;60.00;48.50;;;;;2.79;59.05;102113.56;5020363;28;45305;-67
2022/12/17 19:13:48;;;;;;;;;53.25;45.00;;;;;2.79;58.60;102108.28;5012592;28;45356;-67
2022/12/17 19:16:16;;;;;;;;;53.75;43.50;;;;;2.77;58.40;102102.06;5006815;28;45873;-67
2022/12/17 19:18:42;;;;;;;;;65.00;49.00;;;;;2.76;58.41;102110.84;5001879;28;45361;-67
2022/12/17 19:21:11;;;;;;;;;47.50;40.50;;;;;2.71;58.31;102104.59;5020401;28;45503;-67
2022/12/17 19:23:36;;;;;;;;;60.25;48.50;;;;;2.67;58.60;102103.59;5009187;28;46201;-68
2022/12/17 19:26:17;;;;;;;;;53.00;45.75;;;;;2.69;58.67;102114.19;5000327;28;45264;-67
2022/12/17 19:28:44;;;;;;;;;41.00;36.50;;;;;2.65;58.50;102121.16;5001018;28;45446;-67
2022/12/17 19:31:10;;;;;;;;;53.50;45.50;;;;;2.49;58.49;102090.94;5000516;28;45537;-67
2022/12/17 19:33:36;;;;;;;;;63.00;46.25;;;;;2.63;58.52;102112.31;4999856;28;46107;-68
2022/12/17 19:36:18;;;;;;;;;58.50;50.50;;;;;2.56;58.51;102100.75;5000338;28;45326;-67
2022/12/17 19:38:44;;;;;;;;;54.00;47.00;;;;;2.56;58.85;102103.38;5000865;28;45469;-67
2022/12/17 19:41:15;;;;;;;;;57.25;46.25;;;;;2.55;58.28;102095.44;5000153;28;46656;-67
2022/12/17 19:43:45;;;;;;;;;62.50;48.50;;;;;2.44;58.67;102086.38;5000426;28;46252;-67
2022/12/17 19:46:14;;;;;;;;;64.25;49.50;;;;;2.54;58.67;102107.75;5000406;28;45944;-68
2022/12/17 19:48:40;;;;;;;;;67.75;54.75;;;;;2.53;58.24;102098.03;5000232;28;45481;-68
2022/12/17 19:51:08;;;;;;;;;47.25;40.50;;;;;2.46;58.48;102095.25;5014072;28;45507;-67
2022/12/17 19:53:35;;;;;;;;;64.25;50.00;;;;;2.48;58.86;102098.81;5004959;28;45393;-67
2022/12/17 19:56:26;;;;;;;;;53.50;44.75;;;;;2.46;58.44;102113.69;5000031;28;45316;-67
2022/12/17 19:58:55;;;;;;;;;53.00;44.00;;;;;2.38;58.31;102088.03;5000228;28;45449;-67
2022/12/17 20:01:23;;;;;;;;;12.25;5.00;;;;;2.37;58.47;102096.81;5000254;28;45367;-67
2022/12/17 20:03:50;;;;;;;;;52.50;42.00;;;;;2.36;58.47;102100.28;4999867;28;45447;-68
2022/12/17 20:06:17;;;;;;;;;49.25;42.75;;;;;2.30;58.27;102117.69;4999937;28;45558;-67
2022/12/17 20:08:43;;;;;;;;;58.25;45.50;;;;;2.22;58.29;102125.41;5000378;28;45423;-68
2022/12/17 20:13:59;;;;;;;;;57.00;44.50;;;;;2.16;58.27;102127.91;5011447;28;45672;-68
2022/12/17 20:16:25;;;;;;;;;67.25;53.25;;;;;2.14;58.71;102141.06;5002668;28;45959;-68
2022/12/17 20:18:51;;;;;;;;;50.50;37.75;;;;;2.11;58.38;102130.44;5000458;28;45475;-67
2022/12/17 20:21:17;;;;;;;;;39.00;30.50;;;;;2.08;58.85;102137.38;5018198;28;45629;-68
2022/12/17 20:23:46;;;;;;;;;50.00;42.00;;;;;2.06;58.34;102136.44;5016745;28;45485;-68
2022/12/17 20:26:12;;;;;;;;;53.75;40.75;;;;;2.01;58.32;102154.75;5019224;28;45562;-67
2022/12/17 20:28:37;;;;;;;;;48.75;41.50;;;;;1.98;58.89;102154.69;5019901;28;45325;-67
2022/12/17 20:31:03;;;;;;;;;54.00;44.75;;;;;1.92;58.94;102146.63;5019448;28;45333;-68
2022/12/17 20:33:29;;;;;;;;;58.50;45.00;;;;;1.91;58.39;102160.66;5019664;28;45477;-67
2022/12/17 20:35:55;;;;;;;;;60.50;44.00;;;;;1.89;58.98;102154.44;5019215;28;45363;-68
2022/12/17 20:38:21;;;;;;;;;46.00;38.75;;;;;1.89;58.51;102159.69;5019618;28;45373;-67
2022/12/17 20:40:47;;;;;;;;;54.25;44.25;;;;;1.87;58.29;102156.13;5019172;28;45341;-67
2022/12/17 20:43:12;;;;;;;;;41.75;41.25;;;;;1.83;58.62;102153.41;5019385;28;46288;-68
2022/12/17 20:45:38;;;;;;;;;47.25;43.50;;;;;1.82;59.21;102156.00;5018060;28;45585;-67
2022/12/17 20:48:03;;;;;;;;;50.75;42.25;;;;;1.74;58.54;102147.94;5019324;28;45349;-67
2022/12/17 20:50:29;;;;;;;;;46.75;40.25;;;;;1.77;58.57;102152.38;5016161;28;45566;-68
2022/12/17 20:52:57;;;;;;;;;43.25;34.25;;;;;1.77;58.88;102147.09;5000574;28;46977;-68
2022/12/17 20:55:22;;;;;;;;;58.50;47.00;;;;;1.77;58.50;102155.91;4999256;28;45909;-68
2022/12/17 20:57:48;;;;;;;;;60.00;52.25;;;;;1.84;58.99;102164.88;4999263;28;45278;-67
2022/12/17 21:00:13;;;;;;;;;55.50;43.25;;;;;1.84;58.99;102171.00;5012694;28;45353;-68
2022/12/17 21:02:38;;;;;;;;;52.25;45.00;;;;;1.81;58.81;102173.56;5018265;28;45408;-67
2022/12/17 21:05:04;;;;;;;;;48.75;42.75;;;;;1.77;58.73;102173.44;5018085;28;45449;-68
2022/12/17 21:07:30;;;;;;;;;50.50;43.50;;;;;1.62;58.93;102147.59;5018271;28;45416;-67
2022/12/17 21:09:55;;;;;;;;;54.50;44.25;;;;;1.61;59.07;102153.72;5018155;28;45561;-68
2022/12/17 21:12:21;;;;;;;;;59.50;48.00;;;;;1.69;59.11;102169.69;5017783;28;45510;-68
2022/12/17 21:14:46;;;;;;;;;43.50;43.25;;;;;1.71;58.73;102165.41;5013108;28;45411;-67
2022/12/17 21:17:14;;;;;;;;;64.00;50.00;;;;;1.70;58.99;102155.69;4998302;28;45369;-68
2022/12/17 21:19:40;;;;;;;;;67.50;50.50;;;;;1.69;58.88;102153.91;5000529;28;45370;-68
2022/12/17 21:22:06;;;;;;;;;49.00;43.50;;;;;1.63;59.05;102170.44;5018004;28;46295;-68
2022/12/17 21:24:32;;;;;;;;;55.00;45.00;;;;;1.59;58.67;102165.94;4986861;28;46296;-68
2022/12/17 21:26:57;;;;;;;;;51.00;46.25;;;;;1.52;59.17;102163.97;5017735;28;45503;-68
2022/12/17 21:29:23;;;;;;;;;67.50;47.75;;;;;1.48;59.01;102161.25;5017973;28;45557;-68
2022/12/17 21:31:50;;;;;;;;;56.75;44.75;;;;;1.43;59.49;102152.34;5018597;28;45412;-67
2022/12/17 21:34:20;;;;;;;;;53.50;46.25;;;;;1.46;59.51;102155.06;5018601;28;45410;-67
2022/12/17 21:36:47;;;;;;;;;56.50;44.00;;;;;1.48;58.95;102150.72;5018752;28;45329;-67
2022/12/17 21:39:14;;;;;;;;;51.75;42.50;;;;;1.47;59.19;102150.69;5018662;28;45743;-68
2022/12/17 21:41:41;;;;;;;;;53.00;39.25;;;;;1.47;59.19;102158.56;5018409;28;46363;-67
2022/12/17 21:44:10;;;;;;;;;39.50;36.25;;;;;1.46;59.40;102149.81;5014640;28;45909;-68
2022/12/17 21:46:35;;;;;;;;;45.25;41.50;;;;;1.50;59.32;102148.13;4998753;28;45349;-68
2022/12/17 21:49:02;;;;;;;;;52.50;45.75;;;;;1.51;58.71;102154.31;4998654;28;45326;-68
2022/12/17 21:51:29;;;;;;;;;56.25;43.75;;;;;1.47;58.81;102142.78;4998495;28;46151;-68
2022/12/17 21:54:01;;;;;;;;;54.25;46.50;;;;;1.53;58.91;102150.88;4998589;28;45324;-67
2022/12/17 21:56:27;;;;;;;;;36.75;29.00;;;;;1.52;59.12;102140.28;4998596;28;45338;-68
2022/12/17 21:58:58;;;;;;;;;57.75;46.00;;;;;1.48;58.76;102142.84;5002063;28;45351;-67
2022/12/17 22:01:30;;;;;;;;;52.75;41.75;;;;;1.43;59.53;102133.94;5001905;28;46221;-68
2022/12/17 22:03:57;;;;;;;;;54.25;43.25;;;;;1.39;58.84;102134.69;5008865;28;46062;-68
2022/12/17 22:06:26;;;;;;;;;64.50;49.25;;;;;1.33;58.77;102125.75;5021760;28;45474;-68
2022/12/17 22:08:51;;;;;;;;;56.50;44.75;;;;;1.29;58.92;102115.13;5021921;28;45373;-67
2022/12/17 22:11:22;;;;;;;;;54.75;44.00;;;;;1.30;59.16;102116.03;5021176;28;45474;-68
2022/12/17 22:14:09;;;;;;;;;55.50;38.50;;;;;1.23;59.39;102114.06;5019413;28;46013;-68
2022/12/17 22:16:45;;;;;;;;;50.25;40.50;;;;;1.26;59.52;102109.78;5004407;28;45326;-68
2022/12/17 22:19:18;;;;;;;;;56.75;48.25;;;;;1.32;59.28;102114.34;5001705;28;45501;-68
2022/12/17 22:21:44;;;;;;;;;65.50;45.75;;;;;1.23;59.26;102109.69;5020733;28;46083;-68
2022/12/17 22:24:14;;;;;;;;;55.25;38.50;;;;;1.16;59.25;102113.00;5006063;28;46223;-68
2022/12/17 22:26:39;;;;;;;;;49.25;42.75;;;;;1.15;59.43;102118.22;5001309;28;45346;-68
2022/12/17 22:29:05;;;;;;;;;40.50;36.00;;;;;1.12;60.02;102119.03;5001025;28;45416;-67
2022/12/17 22:34:15;;;;;;;;;53.00;41.50;;;;;1.18;59.27;102129.72;5001469;28;45385;-68
2022/12/17 22:36:40;;;;;;;;;49.50;42.00;;;;;1.14;59.69;102122.59;5001560;28;45398;-68
2022/12/17 22:39:12;;;;;;;;;39.50;34.50;;;;;1.11;60.05;102115.50;5001315;28;45558;-68
2022/12/17 22:44:22;;;;;;;;;45.00;41.25;;;;;1.20;60.02;102114.88;5013111;28;45479;-68
2022/12/17 22:46:48;;;;;;;;;51.50;40.00;;;;;1.23;59.43;102111.44;5001227;28;45339;-68
2022/12/17 22:49:14;;;;;;;;;45.00;39.00;;;;;1.27;59.83;102102.78;5001230;28;45492;-68
2022/12/17 22:51:40;;;;;;;;;44.50;39.00;;;;;1.14;59.30;102090.13;5001088;28;45393;-68
2022/12/17 22:54:08;;;;;;;;;32.75;28.25;;;;;1.10;59.70;102102.31;5001036;28;45396;-68
2022/12/17 22:56:35;;;;;;;;;48.25;39.00;;;;;1.06;59.97;102105.72;5000943;28;45323;-68
2022/12/17 22:59:01;;;;;;;;;48.75;40.50;;;;;1.10;59.67;102113.75;5001109;28;45504;-67
2022/12/17 23:01:27;;;;;;;;;46.00;39.00;;;;;1.11;60.09;102098.84;5001064;28;45420;-68
2022/12/17 23:03:57;;;;;;;;;54.75;45.75;;;;;1.13;59.83;102091.88;5000775;28;45572;-68
2022/12/17 23:06:23;;;;;;;;;50.75;40.50;;;;;1.14;59.40;102087.50;5001025;28;45367;-68
2022/12/17 23:08:48;;;;;;;;;56.75;44.00;;;;;1.11;59.50;102083.94;4999767;28;45374;-68
2022/12/17 23:11:17;;;;;;;;;48.50;44.75;;;;;1.10;60.25;102083.91;5000619;28;45319;-68
2022/12/17 23:13:43;;;;;;;;;61.50;46.25;;;;;1.13;59.97;102083.09;5011825;28;45329;-68
2022/12/17 23:16:12;;;;;;;;;57.50;47.25;;;;;1.16;60.04;102078.81;5007009;28;45510;-68
2022/12/17 23:18:38;;;;;;;;;53.00;42.00;;;;;1.18;59.83;102081.50;5000825;28;45424;-68
2022/12/17 23:21:12;;;;;;;;;58.50;48.00;;;;;1.21;60.06;102079.84;5014507;28;45518;-68
2022/12/17 23:23:38;;;;;;;;;48.25;39.00;;;;;1.21;59.74;102076.31;5009231;28;45568;-68
2022/12/17 23:26:08;;;;;;;;;54.00;47.25;;;;;1.17;59.48;102084.97;5000478;28;45326;-68
2022/12/17 23:28:33;;;;;;;;;70.25;55.25;;;;;1.12;59.63;102076.97;5000781;28;45443;-68
2022/12/17 23:31:11;;;;;;;;;75.75;60.00;;;;;1.10;59.76;102082.19;4998894;28;47781;-68
2022/12/17 23:33:37;;;;;;;;;76.75;58.50;;;;;1.04;60.01;102075.84;5000649;28;45329;-68
2022/12/17 23:36:08;;;;;;;;;69.75;52.25;;;;;1.05;59.59;102065.38;5000392;28;45394;-68
2022/12/17 23:38:34;;;;;;;;;61.75;46.75;;;;;1.07;59.94;102071.56;5004705;28;45566;-68
2022/12/17 23:41:08;;;;;;;;;61.25;47.50;;;;;1.06;60.14;102067.16;5013821;28;46572;-68
2022/12/17 23:43:33;;;;;;;;;55.75;44.75;;;;;1.07;59.67;102074.19;5000514;28;45343;-68
2022/12/17 23:45:59;;;;;;;;;54.75;42.50;;;;;1.08;60.11;102078.59;5000281;28;45445;-68
2022/12/17 23:48:29;;;;;;;;;67.25;47.75;;;;;1.09;59.86;102072.50;5000261;28;45436;-68
2022/12/17 23:50:54;;;;;;;;;56.25;48.50;;;;;1.06;59.89;102072.41;5000065;28;46096;-68
2022/12/17 23:53:19;;;;;;;;;61.00;44.25;;;;;0.94;59.51;102056.28;5000365;28;45481;-68
2022/12/17 23:55:45;;;;;;;;;50.50;43.50;;;;;1.08;59.42;102070.69;4999978;28;45527;-68
2022/12/17 23:58:10;;;;;;;;;58.75;44.50;;;;;1.11;59.52;102080.44;5000420;28;45329;-68
